Time;durP1;ratioP1;P1;durP2;ratioP2;P2;SDS_P1;SDS_P2;PMS_P1;PMS_P2;Temp;Humidity;BMP_temperature;BMP_pressure;BME280_temperature;BME280_humidity;BME280_pressure;Samples;Min_cycle;Max_cycle;Signal;HPM_P1;HPM_P2
2022/12/01 00:00:39;;;;;;;86.05;45.03;;;6.10;99.90;;;;;;5055460;28;20044;-73
2022/12/01 00:03:05;;;;;;;98.18;49.92;;;6.10;99.90;;;;;;5064369;28;20044;-73
2022/12/01 00:05:31;;;;;;;91.75;46.65;;;6.10;99.90;;;;;;5056506;28;20047;-73
2022/12/01 00:07:58;;;;;;;92.80;50.85;;;6.10;99.90;;;;;;5061467;28;20059;-73
2022/12/01 00:10:27;;;;;;;92.20;47.38;;;6.10;99.90;;;;;;5065348;28;20121;-73
2022/12/01 00:13:01;;;;;;;93.32;49.40;;;6.10;99.90;;;;;;5091516;28;20053;-73
2022/12/01 00:15:36;;;;;;;85.22;47.10;;;6.10;99.90;;;;;;5058521;28;20101;-73
2022/12/01 00:18:04;;;;;;;92.53;48.20;;;6.10;99.90;;;;;;5053990;28;20052;-73
2022/12/01 00:20:32;;;;;;;97.65;50.60;;;6.00;99.90;;;;;;5069165;28;20159;-73
2022/12/01 00:22:58;;;;;;;92.25;48.22;;;6.00;99.90;;;;;;5076035;28;20072;-74
2022/12/01 00:25:24;;;;;;;95.35;50.13;;;6.00;99.90;;;;;;5099067;28;20045;-73
2022/12/01 00:27:51;;;;;;;90.97;50.80;;;6.00;99.90;;;;;;5056416;28;20076;-74
2022/12/01 00:30:18;;;;;;;94.45;49.40;;;6.00;99.90;;;;;;5051057;28;20045;-74
2022/12/01 00:32:44;;;;;;;92.35;49.53;;;6.00;99.90;;;;;;5062113;28;20040;-73
2022/12/01 00:35:10;;;;;;;87.75;47.00;;;6.00;99.90;;;;;;5062891;28;20056;-74
2022/12/01 00:37:36;;;;;;;92.82;48.78;;;6.00;99.90;;;;;;5072577;28;20071;-74
2022/12/01 00:40:04;;;;;;;88.32;49.08;;;6.00;99.90;;;;;;5069020;28;20197;-74
2022/12/01 00:42:30;;;;;;;86.38;46.53;;;6.00;99.90;;;;;;5060134;28;20059;-74
2022/12/01 00:44:56;;;;;;;82.57;44.45;;;6.00;99.90;;;;;;5053128;28;20045;-74
2022/12/01 00:47:21;;;;;;;84.57;47.97;;;6.00;99.90;;;;;;5053586;28;20059;-74
2022/12/01 00:49:47;;;;;;;79.20;46.53;;;5.90;99.90;;;;;;5055339;28;20040;-74
2022/12/01 00:52:14;;;;;;;83.20;46.67;;;5.90;99.90;;;;;;5064437;28;20044;-74
2022/12/01 00:54:39;;;;;;;83.35;44.38;;;5.90;99.90;;;;;;5050159;28;20043;-74
2022/12/01 00:57:05;;;;;;;78.40;44.58;;;5.90;99.90;;;;;;5053262;28;20057;-74
2022/12/01 00:59:31;;;;;;;77.38;44.38;;;5.90;99.90;;;;;;5057184;28;20052;-74
2022/12/01 01:01:57;;;;;;;84.47;46.40;;;5.90;99.90;;;;;;5058543;28;20035;-74
2022/12/01 01:04:22;;;;;;;79.00;43.95;;;5.90;99.90;;;;;;5081648;28;20044;-74
2022/12/01 01:06:48;;;;;;;78.38;44.78;;;5.90;99.90;;;;;;5052583;28;20041;-74
2022/12/01 01:09:15;;;;;;;80.85;45.15;;;5.90;99.90;;;;;;5052803;28;20119;-74
2022/12/01 01:11:41;;;;;;;85.13;46.92;;;5.90;99.90;;;;;;5054536;28;20044;-74
2022/12/01 01:14:07;;;;;;;82.95;45.05;;;5.90;99.90;;;;;;5061897;28;20106;-75
2022/12/01 01:16:33;;;;;;;82.00;45.03;;;5.90;99.90;;;;;;5078946;28;20065;-74
2022/12/01 01:18:59;;;;;;;85.30;46.22;;;5.90;99.90;;;;;;5059308;28;20373;-74
2022/12/01 01:21:25;;;;;;;90.53;48.35;;;5.90;99.90;;;;;;5058426;28;20047;-74
2022/12/01 01:23:53;;;;;;;93.78;48.80;;;5.90;99.90;;;;;;5079134;28;20736;-75
2022/12/01 01:26:24;;;;;;;91.63;49.22;;;5.90;99.90;;;;;;5090863;28;20587;-74
2022/12/01 01:28:51;;;;;;;92.72;49.47;;;5.90;99.90;;;;;;5067232;28;20044;-74
2022/12/01 01:31:19;;;;;;;94.13;46.95;;;5.90;99.90;;;;;;5064039;28;20588;-74
2022/12/01 01:33:45;;;;;;;90.55;48.25;;;5.90;99.90;;;;;;5060413;28;20040;-74
2022/12/01 01:36:12;;;;;;;93.32;48.45;;;6.00;99.90;;;;;;5072797;28;20056;-74
2022/12/01 01:38:38;;;;;;;102.45;50.15;;;5.90;99.90;;;;;;5061921;28;20045;-74
2022/12/01 01:41:05;;;;;;;102.50;51.42;;;6.00;99.90;;;;;;5052109;28;20094;-74
2022/12/01 01:43:52;;;;;;;102.55;51.33;;;6.00;99.90;;;;;;5060173;28;20639;-74
2022/12/01 01:46:27;;;;;;;101.75;48.38;;;6.00;99.90;;;;;;5054458;28;20498;-74
2022/12/01 01:49:00;;;;;;;107.35;51.22;;;5.90;99.90;;;;;;5061176;28;20056;-74
2022/12/01 01:51:35;;;;;;;101.43;49.80;;;5.90;99.90;;;;;;5059864;28;20037;-74
2022/12/01 01:54:05;;;;;;;104.68;50.60;;;6.00;99.90;;;;;;5080140;28;20132;-74
2022/12/01 01:56:32;;;;;;;113.10;53.75;;;6.00;99.90;;;;;;5065264;28;20052;-74
2022/12/01 01:58:58;;;;;;;106.97;51.20;;;5.90;99.90;;;;;;5058755;28;20060;-74
2022/12/01 02:01:24;;;;;;;105.60;50.88;;;6.00;99.90;;;;;;5055055;28;20313;-75
2022/12/01 02:03:52;;;;;;;103.53;50.20;;;6.00;99.90;;;;;;5069603;28;20133;-75
2022/12/01 02:06:18;;;;;;;102.68;49.67;;;5.90;99.90;;;;;;5058448;28;20052;-74
2022/12/01 02:08:44;;;;;;;113.07;53.10;;;5.90;99.90;;;;;;5053832;28;20041;-75
2022/12/01 02:11:47;;;;;;;108.18;51.83;;;6.00;99.90;;;;;;5067025;28;20126;-74
2022/12/01 02:14:51;;;;;;;108.03;51.20;;;6.00;99.90;;;;;;5052368;28;20400;-74
2022/12/01 02:17:38;;;;;;;113.57;52.67;;;6.00;99.90;;;;;;5045169;28;20132;-74
2022/12/01 02:20:10;;;;;;;118.57;53.78;;;6.00;99.90;;;;;;5061318;28;20044;-75
2022/12/01 02:23:13;;;;;;;122.22;53.88;;;5.90;99.90;;;;;;5057936;28;20056;-75
2022/12/01 02:26:30;;;;;;;119.05;51.53;;;5.90;99.90;;;;;;5059498;28;20442;-75
2022/12/01 02:29:13;;;;;;;117.80;52.33;;;5.90;99.90;;;;;;5038314;28;20726;-75
2022/12/01 02:31:46;;;;;;;127.22;54.75;;;5.90;99.90;;;;;;5060282;28;20052;-74
2022/12/01 02:34:54;;;;;;;131.40;53.50;;;5.90;99.90;;;;;;5053061;28;20036;-74
2022/12/01 02:37:34;;;;;;;130.68;56.00;;;6.00;99.90;;;;;;5046740;28;20068;-75
2022/12/01 02:40:45;;;;;;;138.55;58.55;;;5.90;99.90;;;;;;5059274;28;20075;-75
2022/12/01 02:43:26;;;;;;;139.32;56.70;;;5.90;99.90;;;;;;5054316;28;20522;-75
2022/12/01 02:46:04;;;;;;;139.85;56.45;;;5.90;99.90;;;;;;5079815;28;20082;-75
2022/12/01 02:48:34;;;;;;;141.45;57.45;;;5.90;99.90;;;;;;5085394;28;20090;-74
2022/12/01 02:51:18;;;;;;;137.43;56.22;;;5.90;99.90;;;;;;5051367;28;20412;-75
2022/12/01 02:53:44;;;;;;;138.52;54.35;;;5.90;99.90;;;;;;5066498;28;20455;-75
2022/12/01 02:56:12;;;;;;;141.07;58.75;;;5.90;99.90;;;;;;5065642;28;20048;-74
2022/12/01 02:58:38;;;;;;;136.50;55.13;;;5.90;99.90;;;;;;5078085;28;20135;-75
2022/12/01 03:01:36;;;;;;;143.27;59.13;;;5.90;99.90;;;;;;5058058;28;21958;-74
2022/12/01 03:04:11;;;;;;;137.15;55.00;;;5.90;99.90;;;;;;5065202;28;20110;-75
2022/12/01 03:07:15;;;;;;;150.93;59.50;;;5.90;99.90;;;;;;5059058;28;20037;-74
2022/12/01 03:09:48;;;;;;;142.35;56.35;;;5.90;99.90;;;;;;5056746;28;20048;-75
2022/12/01 03:12:20;;;;;;;145.63;55.50;;;5.90;99.90;;;;;;5059660;28;20049;-75
2022/12/01 03:15:07;;;;;;;139.85;54.08;;;5.90;99.90;;;;;;5056599;28;20040;-75
2022/12/01 03:17:59;;;;;;;142.15;57.17;;;5.90;99.90;;;;;;5058761;28;20368;-74
2022/12/01 03:20:36;;;;;;;147.68;57.38;;;5.80;99.90;;;;;;5067959;28;20055;-74
2022/12/01 03:23:13;;;;;;;148.48;58.42;;;5.80;99.90;;;;;;5072481;28;20682;-75
2022/12/01 03:25:42;;;;;;;143.30;56.20;;;5.80;99.90;;;;;;5048042;28;20131;-75
2022/12/01 03:28:10;;;;;;;145.95;59.80;;;5.80;99.90;;;;;;5047341;28;20089;-75
2022/12/01 03:30:36;;;;;;;144.75;60.15;;;5.80;99.90;;;;;;5058455;28;20037;-75
2022/12/01 03:33:11;;;;;;;135.53;56.10;;;5.80;99.90;;;;;;5058152;28;20056;-74
2022/12/01 03:35:52;;;;;;;141.10;57.90;;;5.80;99.90;;;;;;5055351;28;20037;-75
2022/12/01 03:38:23;;;;;;;133.48;56.63;;;5.90;99.90;;;;;;5056637;28;20032;-74
2022/12/01 03:40:52;;;;;;;120.38;54.15;;;5.80;99.90;;;;;;5066155;28;20120;-75
2022/12/01 03:43:26;;;;;;;128.10;54.95;;;5.90;99.90;;;;;;5059866;28;20053;-74
2022/12/01 03:46:18;;;;;;;124.55;56.85;;;5.80;99.90;;;;;;5056884;28;20086;-74
2022/12/01 03:48:44;;;;;;;121.70;52.97;;;5.90;99.90;;;;;;5064583;28;20069;-75
2022/12/01 03:51:48;;;;;;;116.22;53.92;;;5.90;99.90;;;;;;5046223;28;20132;-75
2022/12/01 03:54:27;;;;;;;115.45;54.78;;;5.90;99.90;;;;;;5055484;28;20040;-75
2022/12/01 03:56:58;;;;;;;111.88;53.20;;;5.90;99.90;;;;;;5057484;28;20406;-75
2022/12/01 03:59:26;;;;;;;112.88;51.97;;;5.90;99.90;;;;;;5049362;28;20094;-75
2022/12/01 04:01:52;;;;;;;;;;;5.90;99.90;;;;;;5056582;28;20204;-75
2022/12/01 04:04:17;;;;;;;103.18;48.78;;;5.90;99.90;;;;;;5060238;28;19924;-74
2022/12/01 04:06:46;;;;;;;104.85;51.40;;;5.90;99.90;;;;;;5063768;28;20475;-73
2022/12/01 04:09:12;;;;;;;109.55;50.85;;;5.90;99.90;;;;;;5067148;28;20049;-74
2022/12/01 04:14:22;;;;;;;110.82;52.85;;;5.90;99.90;;;;;;5058141;28;20052;-75
2022/12/01 04:16:47;;;;;;;105.90;51.88;;;5.90;99.90;;;;;;5053231;28;20052;-74
2022/12/01 04:19:13;;;;;;;97.68;52.72;;;5.90;99.90;;;;;;5059995;28;20041;-75
2022/12/01 04:21:39;;;;;;;97.65;49.97;;;5.90;99.90;;;;;;5055917;28;20079;-74
2022/12/01 04:24:05;;;;;;;107.78;53.78;;;5.90;99.90;;;;;;5052570;28;20049;-75
2022/12/01 04:26:36;;;;;;;104.28;52.60;;;5.90;99.90;;;;;;5052546;28;20129;-75
2022/12/01 04:29:06;;;;;;;96.78;52.17;;;5.90;99.90;;;;;;5081691;28;20084;-75
2022/12/01 04:31:32;;;;;;;103.53;53.83;;;5.90;99.90;;;;;;5086612;28;20044;-74
2022/12/01 04:33:59;;;;;;;99.60;53.65;;;5.90;99.90;;;;;;5068768;28;20106;-74
2022/12/01 04:36:25;;;;;;;104.05;52.72;;;5.90;99.90;;;;;;5054683;28;20119;-74
2022/12/01 04:38:51;;;;;;;100.23;53.27;;;5.90;99.90;;;;;;5067491;28;20124;-74
2022/12/01 04:41:17;;;;;;;97.40;49.30;;;5.90;99.90;;;;;;5099040;27;20049;-75
2022/12/01 04:43:43;;;;;;;96.30;53.10;;;5.90;99.90;;;;;;5056323;28;20084;-74
2022/12/01 04:46:09;;;;;;;97.20;52.38;;;5.90;99.90;;;;;;5049758;28;20049;-75
2022/12/01 04:48:36;;;;;;;99.53;51.05;;;5.90;99.90;;;;;;5056647;28;20052;-75
2022/12/01 04:51:03;;;;;;;96.10;51.28;;;5.90;99.90;;;;;;5092319;28;20475;-75
2022/12/01 04:53:30;;;;;;;96.00;49.50;;;5.90;99.90;;;;;;5060093;28;20420;-74
2022/12/01 04:55:55;;;;;;;99.82;51.92;;;5.90;99.90;;;;;;5065515;28;20052;-74
2022/12/01 04:58:21;;;;;;;99.07;52.92;;;5.80;99.90;;;;;;5052532;28;20079;-75
2022/12/01 05:00:47;;;;;;;94.32;50.75;;;5.90;99.90;;;;;;5051271;28;20195;-73
2022/12/01 05:03:12;;;;;;;102.82;51.97;;;5.90;99.90;;;;;;5064343;28;20048;-75
2022/12/01 05:05:38;;;;;;;98.95;52.28;;;5.90;99.90;;;;;;5074248;28;20467;-75
2022/12/01 05:08:04;;;;;;;98.57;54.35;;;5.90;99.90;;;;;;5089673;28;20060;-75
2022/12/01 05:10:29;;;;;;;94.43;51.30;;;5.90;99.90;;;;;;5062906;28;20044;-75
2022/12/01 05:12:57;;;;;;;96.03;51.85;;;5.90;99.90;;;;;;5056357;28;20044;-74
2022/12/01 05:15:23;;;;;;;90.47;49.13;;;5.90;99.90;;;;;;5067618;28;20471;-74
2022/12/01 05:17:48;;;;;;;94.97;50.50;;;5.90;99.90;;;;;;5069823;28;20151;-75
2022/12/01 05:23:03;;;;;;;92.13;50.85;;;5.90;99.90;;;;;;5092584;28;20053;-75
2022/12/01 05:25:29;;;;;;;94.50;50.55;;;5.90;99.90;;;;;;5051374;28;20044;-75
2022/12/01 05:27:55;;;;;;;94.22;49.88;;;5.90;99.90;;;;;;5056706;28;20083;-75
2022/12/01 05:30:21;;;;;;;97.60;52.08;;;5.90;99.90;;;;;;5058249;28;20120;-74
2022/12/01 05:32:46;;;;;;;93.22;52.22;;;5.90;99.90;;;;;;5088529;28;20492;-74
2022/12/01 05:35:12;;;;;;;95.72;52.88;;;5.90;99.90;;;;;;5061236;28;20375;-75
2022/12/01 05:37:37;;;;;;;99.72;51.95;;;5.90;99.90;;;;;;5078718;28;20091;-75
2022/12/01 05:40:04;;;;;;;97.57;50.80;;;5.90;99.90;;;;;;5063587;28;20039;-75
2022/12/01 05:42:29;;;;;;;98.00;52.88;;;5.90;99.90;;;;;;5058817;28;20036;-75
2022/12/01 05:44:55;;;;;;;100.13;49.88;;;5.90;99.90;;;;;;5056077;28;20573;-75
2022/12/01 05:47:21;;;;;;;93.30;50.47;;;5.90;99.90;;;;;;5059837;28;20155;-74
2022/12/01 05:49:47;;;;;;;92.55;50.80;;;5.90;99.90;;;;;;5063044;28;20546;-74
2022/12/01 05:52:12;;;;;;;91.90;50.35;;;5.90;99.90;;;;;;5058212;28;20040;-75
2022/12/01 05:54:38;;;;;;;96.85;51.53;;;5.90;99.90;;;;;;5055243;28;20045;-74
2022/12/01 05:57:03;;;;;;;87.07;49.55;;;5.90;99.90;;;;;;5061844;28;20071;-74
2022/12/01 05:59:29;;;;;;;99.45;51.25;;;5.90;99.90;;;;;;5063262;28;20389;-74
2022/12/01 06:01:55;;;;;;;96.40;49.47;;;5.90;99.90;;;;;;5062051;28;20040;-74
2022/12/01 06:04:20;;;;;;;96.22;50.20;;;5.90;99.90;;;;;;5080180;28;20117;-74
2022/12/01 06:06:46;;;;;;;96.00;50.47;;;5.90;99.90;;;;;;5056283;28;20033;-75
2022/12/01 06:09:11;;;;;;;97.25;49.97;;;5.90;99.90;;;;;;5049454;28;20044;-75
2022/12/01 06:11:37;;;;;;;97.72;50.55;;;5.90;99.90;;;;;;5055582;28;20044;-75
2022/12/01 06:14:03;;;;;;;92.82;51.85;;;5.90;99.90;;;;;;5051402;28;20047;-74
2022/12/01 06:16:28;;;;;;;96.43;50.47;;;5.90;99.90;;;;;;5060954;28;20115;-75
2022/12/01 06:18:54;;;;;;;97.35;50.33;;;5.90;99.90;;;;;;5075820;28;20049;-75
2022/12/01 06:21:19;;;;;;;92.43;49.35;;;5.90;99.90;;;;;;5059852;28;20040;-75
2022/12/01 06:23:45;;;;;;;97.90;49.53;;;5.90;99.90;;;;;;5050838;28;20399;-75
2022/12/01 06:26:11;;;;;;;97.25;51.65;;;5.90;99.90;;;;;;5066860;28;20089;-74
2022/12/01 06:28:36;;;;;;;97.80;50.97;;;5.90;99.90;;;;;;5062658;28;20418;-75
2022/12/01 06:31:02;;;;;;;100.57;51.25;;;5.90;99.90;;;;;;5078040;28;20041;-75
2022/12/01 06:33:27;;;;;;;93.50;50.42;;;5.90;99.90;;;;;;5053874;28;20124;-75
2022/12/01 06:35:58;;;;;;;95.85;50.45;;;5.90;99.90;;;;;;5055676;28;20105;-75
2022/12/01 06:38:24;;;;;;;98.82;50.13;;;5.90;99.90;;;;;;5061549;28;20098;-75
2022/12/01 06:40:49;;;;;;;100.68;50.08;;;5.90;99.90;;;;;;5059982;28;20048;-75
2022/12/01 06:43:15;;;;;;;97.03;49.95;;;5.90;99.90;;;;;;5070811;28;20077;-75
2022/12/01 06:45:40;;;;;;;95.40;49.90;;;5.90;99.90;;;;;;5054310;28;20473;-74
2022/12/01 06:48:06;;;;;;;95.90;51.13;;;5.90;99.90;;;;;;5054580;28;20083;-75
2022/12/01 06:50:31;;;;;;;103.00;51.25;;;5.90;99.90;;;;;;5059421;28;20033;-75
2022/12/01 06:52:57;;;;;;;98.63;51.17;;;6.00;99.90;;;;;;5060179;28;20033;-71
2022/12/01 06:55:24;;;;;;;100.63;51.28;;;5.90;99.90;;;;;;5063954;28;20124;-75
2022/12/01 06:57:49;;;;;;;101.53;50.30;;;5.90;99.90;;;;;;5056229;28;20048;-74
2022/12/01 07:00:16;;;;;;;97.95;49.47;;;5.90;99.90;;;;;;5065465;28;20036;-75
2022/12/01 07:02:42;;;;;;;102.78;51.35;;;5.90;99.90;;;;;;5060609;28;20044;-75
2022/12/01 07:05:08;;;;;;;98.85;49.75;;;5.90;99.90;;;;;;5055993;28;20039;-75
2022/12/01 07:07:38;;;;;;;107.22;51.92;;;5.90;99.90;;;;;;5059916;28;20045;-75
2022/12/01 07:10:05;;;;;;;96.05;50.15;;;5.90;99.90;;;;;;5042901;28;20044;-75
2022/12/01 07:12:31;;;;;;;102.22;51.05;;;5.90;99.90;;;;;;5055870;28;20037;-74
2022/12/01 07:14:57;;;;;;;97.30;49.67;;;5.90;99.90;;;;;;5056988;28;20067;-74
2022/12/01 07:17:23;;;;;;;103.85;49.17;;;5.80;99.90;;;;;;5056823;28;20487;-75
2022/12/01 07:19:49;;;;;;;101.07;51.67;;;5.90;99.90;;;;;;5059936;28;20602;-75
2022/12/01 07:22:15;;;;;;;94.95;50.33;;;5.90;99.90;;;;;;5059991;28;20037;-74
2022/12/01 07:24:41;;;;;;;102.28;53.00;;;5.90;99.90;;;;;;5058431;28;20061;-75
2022/12/01 07:27:06;;;;;;;100.82;50.30;;;5.90;99.90;;;;;;5061943;28;20563;-75
2022/12/01 07:29:32;;;;;;;92.97;49.63;;;5.90;99.90;;;;;;5050393;28;20076;-74
2022/12/01 07:31:58;;;;;;;98.47;50.30;;;5.90;99.90;;;;;;5054242;28;20067;-75
2022/12/01 07:34:26;;;;;;;99.20;48.30;;;5.80;99.90;;;;;;5059118;28;20036;-75
2022/12/01 07:36:52;;;;;;;101.68;47.83;;;5.90;99.90;;;;;;5061134;28;20067;-74
2022/12/01 07:39:18;;;;;;;101.15;49.17;;;5.90;99.90;;;;;;5059656;28;20476;-75
2022/12/01 07:41:44;;;;;;;99.43;50.72;;;5.90;99.90;;;;;;5058909;28;20480;-75
2022/12/01 07:44:10;;;;;;;97.60;50.90;;;5.80;99.90;;;;;;5059490;28;20083;-75
2022/12/01 07:46:36;;;;;;;96.18;48.88;;;5.80;99.90;;;;;;5070909;28;20037;-75
2022/12/01 07:49:05;;;;;;;107.50;50.28;;;5.90;99.90;;;;;;5053644;28;20423;-75
2022/12/01 07:51:31;;;;;;;105.07;51.85;;;5.90;99.90;;;;;;5067823;28;20140;-74
2022/12/01 07:54:05;;;;;;;106.25;50.72;;;5.80;99.90;;;;;;5058723;28;20102;-75
2022/12/01 07:56:31;;;;;;;102.75;52.42;;;5.80;99.90;;;;;;5058976;28;20084;-75
2022/12/01 07:58:57;;;;;;;98.53;50.55;;;5.80;99.90;;;;;;5059589;28;20040;-74
2022/12/01 08:01:23;;;;;;;110.68;53.08;;;5.80;99.90;;;;;;5052674;28;20134;-74
2022/12/01 08:03:54;;;;;;;109.90;52.25;;;5.80;99.90;;;;;;5053132;28;20064;-74
2022/12/01 08:06:22;;;;;;;105.00;53.08;;;5.80;99.90;;;;;;5061146;28;20041;-75
2022/12/01 08:08:48;;;;;;;107.22;52.08;;;5.80;99.90;;;;;;5060819;28;20048;-75
2022/12/01 08:11:20;;;;;;;116.47;56.65;;;5.80;99.90;;;;;;5061069;28;20124;-75
2022/12/01 08:13:46;;;;;;;110.75;55.97;;;5.90;99.90;;;;;;5053208;28;20659;-75
2022/12/01 08:16:14;;;;;;;107.45;54.38;;;5.80;99.90;;;;;;5062939;28;20102;-75
2022/12/01 08:18:41;;;;;;;111.13;55.90;;;5.80;99.90;;;;;;5088495;28;20049;-75
2022/12/01 08:21:09;;;;;;;111.30;55.97;;;5.80;99.90;;;;;;5094166;28;20158;-75
2022/12/01 08:23:35;;;;;;;108.10;54.67;;;5.90;99.90;;;;;;5064015;28;20064;-74
2022/12/01 08:26:06;;;;;;;109.80;55.65;;;5.90;99.90;;;;;;5064178;28;20566;-75
2022/12/01 08:28:35;;;;;;;107.55;52.83;;;5.90;99.90;;;;;;5081466;28;20119;-75
2022/12/01 08:31:13;;;;;;;108.80;51.00;;;5.90;99.90;;;;;;5057198;28;20045;-76
2022/12/01 08:33:39;;;;;;;103.50;53.25;;;5.90;99.90;;;;;;5054775;28;20048;-82
2022/12/01 08:36:05;;;;;;;106.97;53.30;;;5.90;99.90;;;;;;5062479;28;20041;-77
2022/12/01 08:38:31;;;;;;;104.07;52.63;;;5.90;99.90;;;;;;5065395;28;20052;-82
2022/12/01 08:41:06;;;;;;;105.32;51.70;;;5.90;99.90;;;;;;5057225;28;20510;-79
2022/12/01 08:43:31;;;;;;;102.07;50.10;;;5.90;99.90;;;;;;5060435;28;20509;-82
2022/12/01 08:45:59;;;;;;;101.72;51.15;;;5.90;99.90;;;;;;5065686;28;20044;-81
2022/12/01 08:48:25;;;;;;;108.10;52.90;;;5.90;99.90;;;;;;5068723;28;20394;-80
2022/12/01 08:50:50;;;;;;;105.47;51.65;;;5.90;99.90;;;;;;5087024;28;20044;-79
2022/12/01 08:53:16;;;;;;;103.60;50.40;;;5.90;99.90;;;;;;5063657;28;20041;-79
2022/12/01 08:55:42;;;;;;;105.75;51.25;;;6.00;99.90;;;;;;5064045;28;20778;-81
2022/12/01 08:58:08;;;;;;;106.85;50.15;;;6.00;99.90;;;;;;5059633;28;20048;-80
2022/12/01 09:00:33;;;;;;;104.05;52.75;;;6.00;99.90;;;;;;5050011;28;20094;-79
2022/12/01 09:02:59;;;;;;;102.18;48.75;;;6.00;99.90;;;;;;5094922;28;20422;-84
2022/12/01 09:05:25;;;;;;;96.07;50.67;;;5.90;99.90;;;;;;5057492;28;20040;-80
2022/12/01 09:08:30;;;;;;;101.05;50.65;;;6.00;99.90;;;;;;5068667;28;20040;-82
2022/12/01 09:10:36;;;;;;;99.47;50.47;;;6.00;99.90;;;;;;5064078;28;20068;-86
2022/12/01 09:13:02;;;;;;;102.95;49.55;;;6.00;99.90;;;;;;5065086;28;20045;-82
2022/12/01 09:15:27;;;;;;;103.13;48.67;;;6.00;99.90;;;;;;5065908;28;20047;-83
2022/12/01 09:17:53;;;;;;;104.95;51.72;;;6.00;99.90;;;;;;5066568;28;20082;-83
2022/12/01 09:20:19;;;;;;;97.93;49.33;;;6.00;99.90;;;;;;5063753;28;20044;-74
2022/12/01 09:22:44;;;;;;;101.93;49.92;;;6.10;99.90;;;;;;5057814;28;20052;-77
2022/12/01 09:25:13;;;;;;;99.18;49.50;;;6.00;99.90;;;;;;5071897;28;20500;-81
2022/12/01 09:27:39;;;;;;;98.93;47.90;;;6.10;99.90;;;;;;5048817;28;20052;-79
2022/12/01 09:30:05;;;;;;;94.40;48.33;;;6.10;99.90;;;;;;5061107;28;20120;-78
2022/12/01 09:32:31;;;;;;;98.60;50.00;;;6.10;99.90;;;;;;5060868;28;20045;-78
2022/12/01 09:34:56;;;;;;;97.55;49.00;;;6.10;99.90;;;;;;5077590;28;20048;-77
2022/12/01 09:37:22;;;;;;;96.28;50.50;;;6.10;99.90;;;;;;5058589;28;20667;-77
2022/12/01 09:39:48;;;;;;;95.88;48.10;;;6.10;99.90;;;;;;5062708;28;20044;-78
2022/12/01 09:42:17;;;;;;;100.15;49.40;;;6.10;99.90;;;;;;5058927;28;20039;-79
2022/12/01 09:44:52;;;;;;;92.78;47.33;;;6.10;99.90;;;;;;5099317;28;20063;-78
2022/12/01 09:47:20;;;;;;;95.53;47.22;;;6.20;99.90;;;;;;5069840;28;20043;-77
2022/12/01 09:49:54;;;;;;;94.95;48.08;;;6.20;99.90;;;;;;5066840;28;20129;-79
2022/12/01 09:52:21;;;;;;;96.63;48.22;;;6.10;99.90;;;;;;5067141;28;20051;-78
2022/12/01 09:54:48;;;;;;;86.55;46.65;;;6.20;99.90;;;;;;5067890;28;20052;-81
2022/12/01 09:57:39;;;;;;;89.85;47.60;;;6.20;99.90;;;;;;5064462;28;20525;-85
2022/12/01 10:00:11;;;;;;;84.55;44.58;;;6.20;99.90;;;;;;5056380;28;20121;-80
2022/12/01 10:02:47;;;;;;;82.88;46.13;;;6.20;99.90;;;;;;5063620;28;20044;-79
2022/12/01 10:05:18;;;;;;;84.13;44.67;;;6.20;99.90;;;;;;5064356;28;20494;-81
2022/12/01 10:07:47;;;;;;;81.45;45.72;;;6.20;99.90;;;;;;5092628;28;20044;-82
2022/12/01 10:10:25;;;;;;;84.80;43.45;;;6.20;99.90;;;;;;5055479;28;20048;-76
2022/12/01 10:12:51;;;;;;;86.38;45.20;;;6.20;99.90;;;;;;5052825;28;20480;-72
2022/12/01 10:15:45;;;;;;;86.88;45.85;;;6.20;99.90;;;;;;5079320;28;20124;-74
2022/12/01 10:18:16;;;;;;;88.13;48.78;;;6.20;99.90;;;;;;5051366;28;20479;-76
2022/12/01 10:21:15;;;;;;;87.47;48.83;;;6.30;99.90;;;;;;5055985;28;20044;-72
2022/12/01 10:24:15;;;;;;;88.28;46.55;;;6.30;99.90;;;;;;5066408;28;20052;-73
2022/12/01 10:26:52;;;;;;;87.43;46.22;;;6.30;99.90;;;;;;5067618;28;20055;-75
2022/12/01 10:29:34;;;;;;;77.65;43.47;;;6.40;99.90;;;;;;5065407;28;20052;-74
2022/12/01 10:32:11;;;;;;;83.80;44.50;;;6.40;99.90;;;;;;5062441;28;20052;-75
2022/12/01 10:34:41;;;;;;;85.53;47.10;;;6.40;99.90;;;;;;5069074;28;20119;-74
2022/12/01 10:37:16;;;;;;;75.43;44.03;;;6.40;99.90;;;;;;5065079;28;20040;-73
2022/12/01 10:39:45;;;;;;;76.97;43.67;;;6.40;99.90;;;;;;5062933;28;20076;-75
2022/12/01 10:42:29;;;;;;;77.38;44.33;;;6.50;99.90;;;;;;5064023;28;20127;-72
2022/12/01 10:44:56;;;;;;;75.30;42.40;;;6.50;99.90;;;;;;5064686;28;20963;-73
2022/12/01 10:47:24;;;;;;;78.20;43.50;;;6.50;99.90;;;;;;5064171;28;20052;-81
2022/12/01 10:49:50;;;;;;;72.20;42.30;;;6.50;99.90;;;;;;5088133;28;20045;-78
2022/12/01 10:52:37;;;;;;;73.43;43.42;;;6.50;99.90;;;;;;5064978;28;20043;-78
2022/12/01 10:55:25;;;;;;;74.47;43.30;;;6.50;99.90;;;;;;5059651;28;20044;-78
2022/12/01 10:57:52;;;;;;;80.85;43.50;;;6.50;99.90;;;;;;5054086;28;20051;-78
2022/12/01 11:00:23;;;;;;;85.80;48.53;;;6.50;99.90;;;;;;5051346;28;20550;-80
2022/12/01 11:02:49;;;;;;;77.50;45.38;;;6.50;99.90;;;;;;5058870;28;20106;-78
2022/12/01 11:05:23;;;;;;;81.80;47.08;;;6.60;99.90;;;;;;5092919;28;20041;-78
2022/12/01 11:07:49;;;;;;;77.55;42.90;;;6.60;99.90;;;;;;5064455;28;20048;-77
2022/12/01 11:10:19;;;;;;;72.05;41.22;;;6.50;99.90;;;;;;5063117;28;20454;-78
2022/12/01 11:13:27;;;;;;;72.47;41.25;;;6.60;99.90;;;;;;5064660;28;20040;-82
2022/12/01 11:15:58;;;;;;;70.82;41.80;;;6.60;99.90;;;;;;5057225;28;20049;-75
2022/12/01 11:18:29;;;;;;;74.47;44.47;;;6.60;99.90;;;;;;5060043;28;20102;-77
2022/12/01 11:21:04;;;;;;;72.40;42.78;;;6.60;99.90;;;;;;5052670;28;20043;-73
2022/12/01 11:23:30;;;;;;;75.32;42.10;;;6.60;99.90;;;;;;5064445;28;20079;-73
2022/12/01 11:26:19;;;;;;;74.30;43.50;;;6.70;99.90;;;;;;5058982;28;20091;-71
2022/12/01 11:28:56;;;;;;;70.82;40.38;;;6.60;99.90;;;;;;5056003;28;20067;-74
2022/12/01 11:31:43;;;;;;;67.97;41.38;;;6.60;99.90;;;;;;5074994;28;20063;-75
2022/12/01 11:34:37;;;;;;;68.82;40.38;;;6.70;99.90;;;;;;5056570;28;20056;-76
2022/12/01 11:37:06;;;;;;;68.40;41.55;;;6.60;99.90;;;;;;5058662;28;20071;-75
2022/12/01 11:39:38;;;;;;;67.30;41.20;;;6.70;99.90;;;;;;5067323;28;20044;-75
2022/12/01 11:42:13;;;;;;;55.25;35.33;;;6.70;99.90;;;;;;5063923;28;20085;-75
2022/12/01 11:44:50;;;;;;;57.70;38.95;;;6.70;99.90;;;;;;5065495;28;20045;-78
2022/12/01 11:47:21;;;;;;;60.85;37.50;;;6.80;99.90;;;;;;5061670;28;20118;-79
2022/12/01 11:49:56;;;;;;;65.90;40.30;;;6.70;99.90;;;;;;5073707;28;20041;-79
2022/12/01 11:52:32;;;;;;;60.58;36.30;;;6.70;99.90;;;;;;5063951;28;20088;-79
2022/12/01 11:54:59;;;;;;;60.33;36.08;;;6.70;99.90;;;;;;5067470;28;20044;-71
2022/12/01 11:57:28;;;;;;;59.17;36.45;;;6.70;99.90;;;;;;5072667;28;20458;-73
2022/12/01 11:59:53;;;;;;;54.65;34.90;;;6.70;99.90;;;;;;5059471;28;20055;-73
2022/12/01 12:02:42;;;;;;;52.97;35.30;;;6.80;99.90;;;;;;5096635;28;20033;-71
2022/12/01 12:05:35;;;;;;;53.17;35.33;;;6.70;99.90;;;;;;5063346;28;20114;-73
2022/12/01 12:08:25;;;;;;;53.28;35.47;;;6.80;99.90;;;;;;5068542;28;20558;-74
2022/12/01 12:11:14;;;;;;;53.83;37.08;;;6.80;99.90;;;;;;5064978;28;20045;-73
2022/12/01 12:14:06;;;;;;;54.53;34.70;;;6.80;99.90;;;;;;5072137;28;20060;-74
2022/12/01 12:17:07;;;;;;;55.65;34.85;;;6.80;99.90;;;;;;5062766;28;20055;-73
2022/12/01 12:19:43;;;;;;;52.45;34.22;;;6.80;99.90;;;;;;5064380;28;20101;-70
2022/12/01 12:22:38;;;;;;;50.47;35.00;;;6.80;99.90;;;;;;5065640;28;20044;-75
2022/12/01 12:25:06;;;;;;;54.33;34.92;;;6.80;99.90;;;;;;5067977;28;20131;-74
2022/12/01 12:28:04;;;;;;;55.00;37.80;;;6.80;99.90;;;;;;5080113;28;20064;-74
2022/12/01 12:30:33;;;;;;;54.72;34.80;;;6.80;99.90;;;;;;5060137;28;20492;-73
2022/12/01 12:33:44;;;;;;;48.92;33.42;;;6.80;99.90;;;;;;5067396;28;20049;-74
2022/12/01 12:36:19;;;;;;;52.97;35.92;;;6.90;99.90;;;;;;5061653;28;20041;-73
2022/12/01 12:39:02;;;;;;;54.55;37.85;;;6.80;99.90;;;;;;5079128;28;20037;-74
2022/12/01 12:41:59;;;;;;;52.83;35.50;;;6.90;99.90;;;;;;5063242;28;20044;-75
2022/12/01 12:45:10;;;;;;;55.38;33.97;;;6.80;99.90;;;;;;5046437;28;20044;-77
2022/12/01 12:48:06;;;;;;;55.17;33.65;;;6.80;99.90;;;;;;5049983;28;20064;-74
2022/12/01 12:50:38;;;;;;;52.72;33.90;;;6.80;99.90;;;;;;5074162;28;20048;-75
2022/12/01 12:53:16;;;;;;;55.47;36.22;;;6.80;99.90;;;;;;5066960;28;20564;-77
2022/12/01 12:55:44;;;;;;;;;;;6.80;99.90;;;;;;5058823;28;20052;-74
2022/12/01 12:58:13;;;;;;;53.17;34.33;;;6.80;99.90;;;;;;5065129;28;19929;-76
2022/12/01 13:00:51;;;;;;;49.85;34.08;;;6.80;99.90;;;;;;5063341;28;20093;-75